Time;durP1;ratioP1;P1;durP2;ratioP2;P2;SDS_P1;SDS_P2;PMS_P1;PMS_P2;Temp;Humidity;BMP_temperature;BMP_pressure;BME280_temperature;BME280_humidity;BME280_pressure;Samples;Min_cycle;Max_cycle;Signal;HPM_P1;HPM_P2
2021/07/10 00:01:12;;;;;;;2.05;1.30;;;17.50;99.90;;;;;;5011477;28;20437;-88
2021/07/10 00:03:39;;;;;;;1.65;1.50;;;17.40;99.90;;;;;;5009522;28;20104;-88
2021/07/10 00:06:05;;;;;;;2.53;1.48;;;17.40;99.90;;;;;;5011349;28;20111;-88
2021/07/10 00:08:31;;;;;;;2.50;1.23;;;17.40;99.90;;;;;;5011267;28;20088;-88
2021/07/10 00:10:57;;;;;;;2.70;1.23;;;17.30;99.90;;;;;;5010984;28;20510;-89
2021/07/10 00:13:24;;;;;;;2.67;1.35;;;17.30;99.90;;;;;;5011329;28;20101;-89
2021/07/10 00:15:50;;;;;;;2.30;1.30;;;17.20;99.90;;;;;;5010904;28;20453;-88
2021/07/10 00:18:16;;;;;;;1.52;1.25;;;17.20;99.90;;;;;;5010995;28;20038;-88
2021/07/10 00:20:45;;;;;;;2.10;1.30;;;17.20;99.90;;;;;;4992998;28;20121;-88
2021/07/10 00:23:11;;;;;;;1.70;1.38;;;17.20;99.90;;;;;;4993387;28;20394;-88
2021/07/10 00:25:36;;;;;;;2.13;1.35;;;17.10;99.90;;;;;;5009597;28;20068;-89
2021/07/10 00:28:03;;;;;;;2.22;1.50;;;17.10;99.90;;;;;;5010824;28;20037;-89
2021/07/10 00:30:28;;;;;;;2.70;1.30;;;17.00;99.90;;;;;;5009783;28;20526;-88
2021/07/10 00:32:54;;;;;;;2.55;1.58;;;17.00;99.90;;;;;;5010412;28;20097;-89
2021/07/10 00:35:20;;;;;;;2.35;1.58;;;17.00;99.90;;;;;;5005378;28;20097;-89
2021/07/10 00:37:47;;;;;;;2.65;1.80;;;16.90;99.90;;;;;;5002372;28;20109;-89
2021/07/10 00:40:13;;;;;;;3.42;1.90;;;16.90;99.90;;;;;;5010957;28;20029;-89
2021/07/10 00:42:40;;;;;;;2.38;1.80;;;16.90;99.90;;;;;;5011148;28;20025;-89
2021/07/10 00:45:09;;;;;;;2.35;1.60;;;16.90;99.90;;;;;;5009459;28;20077;-88
2021/07/10 00:47:36;;;;;;;1.90;1.60;;;16.80;99.90;;;;;;4999417;28;20021;-88
2021/07/10 00:50:17;;;;;;;2.17;1.83;;;16.80;99.90;;;;;;5011043;28;20061;-88
2021/07/10 00:52:43;;;;;;;5.90;2.63;;;16.80;99.90;;;;;;5010839;28;20010;-88
2021/07/10 00:55:10;;;;;;;5.88;2.78;;;16.70;99.90;;;;;;5010779;28;20026;-89
2021/07/10 00:57:37;;;;;;;4.88;1.90;;;16.80;99.90;;;;;;5011060;28;20268;-88
2021/07/10 01:00:07;;;;;;;2.45;1.80;;;16.80;99.90;;;;;;5010962;28;20045;-88
2021/07/10 01:02:34;;;;;;;6.75;2.78;;;16.70;99.90;;;;;;5010516;28;20022;-89
2021/07/10 01:04:59;;;;;;;2.72;2.30;;;16.70;99.90;;;;;;5010747;28;20517;-89
2021/07/10 01:07:25;;;;;;;2.70;1.70;;;16.60;99.90;;;;;;5009109;28;20018;-88
2021/07/10 01:09:51;;;;;;;2.60;2.08;;;16.60;99.90;;;;;;4992462;28;20040;-89
2021/07/10 01:12:16;;;;;;;2.03;1.73;;;16.60;99.90;;;;;;4992562;28;20113;-88
2021/07/10 01:14:43;;;;;;;2.33;2.08;;;16.60;99.90;;;;;;5009519;28;20498;-89
2021/07/10 01:17:09;;;;;;;3.20;1.52;;;16.60;99.90;;;;;;5010282;28;20033;-89
2021/07/10 01:19:35;;;;;;;3.90;1.90;;;16.60;99.90;;;;;;5009978;28;20509;-89
2021/07/10 01:22:00;;;;;;;2.88;1.92;;;16.70;99.90;;;;;;5010183;28;20045;-89
2021/07/10 01:24:26;;;;;;;2.50;1.80;;;16.60;99.90;;;;;;4975665;28;20038;-88
2021/07/10 01:26:52;;;;;;;6.30;2.05;;;16.60;99.90;;;;;;4982438;28;20021;-89
2021/07/10 01:29:19;;;;;;;2.30;1.88;;;16.70;99.90;;;;;;4995045;28;20019;-89
2021/07/10 01:31:45;;;;;;;2.70;2.00;;;16.70;99.90;;;;;;5010731;28;20467;-89
2021/07/10 01:34:11;;;;;;;2.67;1.67;;;16.80;99.90;;;;;;5010491;28;20029;-89
2021/07/10 01:36:40;;;;;;;3.38;1.50;;;16.80;99.90;;;;;;4996596;28;20030;-89
2021/07/10 01:39:07;;;;;;;3.58;2.08;;;16.90;99.90;;;;;;5010144;28;20057;-89
2021/07/10 01:41:43;;;;;;;2.85;2.13;;;16.90;99.90;;;;;;5010126;28;20505;-89
2021/07/10 01:44:09;;;;;;;4.90;1.90;;;16.90;99.90;;;;;;5009923;28;20034;-89
2021/07/10 01:46:35;;;;;;;2.90;1.80;;;16.90;99.90;;;;;;5008789;28;20022;-89
2021/07/10 01:49:01;;;;;;;2.60;1.83;;;16.90;99.90;;;;;;4995853;28;20105;-89
2021/07/10 01:51:27;;;;;;;2.75;1.90;;;17.00;99.90;;;;;;5009673;28;20033;-91
2021/07/10 01:53:52;;;;;;;2.88;2.00;;;17.00;99.90;;;;;;5029317;28;20025;-89
2021/07/10 01:56:18;;;;;;;2.60;1.77;;;16.90;99.90;;;;;;5024289;28;20525;-89
2021/07/10 01:58:44;;;;;;;4.00;2.17;;;17.00;99.90;;;;;;5024464;28;20065;-89
2021/07/10 02:01:09;;;;;;;2.55;1.83;;;17.00;99.90;;;;;;5015146;28;20057;-89
2021/07/10 02:03:35;;;;;;;3.10;1.92;;;17.00;99.90;;;;;;5041813;28;20217;-88
2021/07/10 02:06:03;;;;;;;3.28;1.90;;;17.10;99.90;;;;;;5026188;28;20022;-90
2021/07/10 02:08:28;;;;;;;2.08;1.55;;;17.10;99.90;;;;;;5004490;28;20033;-89
2021/07/10 02:10:54;;;;;;;2.72;1.90;;;17.20;99.90;;;;;;5006513;28;20030;-88
2021/07/10 02:13:20;;;;;;;5.85;1.88;;;17.20;99.90;;;;;;5009702;28;20029;-89
2021/07/10 02:15:45;;;;;;;5.07;2.28;;;17.30;99.90;;;;;;5009482;28;20030;-89
2021/07/10 02:18:11;;;;;;;3.72;1.98;;;17.30;99.90;;;;;;5024793;28;20029;-89
2021/07/10 02:20:38;;;;;;;2.55;1.95;;;17.30;99.90;;;;;;5024517;28;20072;-88
2021/07/10 02:23:05;;;;;;;2.63;2.28;;;17.30;99.90;;;;;;5009755;28;20029;-89
2021/07/10 02:25:31;;;;;;;2.60;1.90;;;17.40;99.90;;;;;;5011723;28;20092;-89
2021/07/10 02:27:57;;;;;;;2.88;1.90;;;17.40;99.90;;;;;;5013721;28;20026;-89
2021/07/10 02:30:28;;;;;;;3.08;2.15;;;17.50;99.90;;;;;;5014042;28;20030;-89
2021/07/10 02:32:56;;;;;;;2.45;1.80;;;17.50;99.90;;;;;;4997668;28;20029;-88
2021/07/10 02:35:21;;;;;;;3.92;2.30;;;17.50;99.90;;;;;;4997960;28;20021;-89
2021/07/10 02:37:48;;;;;;;2.83;1.80;;;17.50;99.90;;;;;;5005209;28;20026;-89
2021/07/10 02:40:15;;;;;;;2.70;1.95;;;17.40;99.90;;;;;;4997681;28;20095;-89
2021/07/10 02:42:41;;;;;;;2.80;2.03;;;17.40;99.90;;;;;;5012678;28;20065;-88
2021/07/10 02:45:09;;;;;;;3.92;1.83;;;17.40;99.90;;;;;;5012650;28;20034;-88
2021/07/10 02:47:35;;;;;;;2.63;1.85;;;17.50;99.90;;;;;;5027900;28;20018;-89
2021/07/10 02:50:01;;;;;;;4.43;1.83;;;17.50;99.90;;;;;;5027940;28;20034;-89
2021/07/10 02:52:27;;;;;;;2.40;1.75;;;17.50;99.90;;;;;;5012747;28;20014;-90
2021/07/10 02:54:53;;;;;;;3.03;1.70;;;17.50;99.90;;;;;;5012922;28;20033;-89
2021/07/10 02:57:18;;;;;;;3.15;1.77;;;17.60;99.90;;;;;;5012371;28;20018;-88
2021/07/10 02:59:45;;;;;;;2.53;1.80;;;17.50;99.90;;;;;;5012413;28;20061;-89
2021/07/10 03:02:11;;;;;;;5.00;2.08;;;17.50;99.90;;;;;;5012409;28;20029;-89
2021/07/10 03:04:39;;;;;;;2.78;1.92;;;17.50;99.90;;;;;;5012258;28;20030;-88
2021/07/10 03:07:04;;;;;;;2.58;1.52;;;17.60;99.90;;;;;;5012316;28;20057;-89
2021/07/10 03:09:33;;;;;;;2.47;1.58;;;17.70;99.90;;;;;;5012866;28;20049;-89
2021/07/10 03:11:58;;;;;;;4.28;1.60;;;17.60;99.90;;;;;;5000146;28;20089;-88
2021/07/10 03:14:24;;;;;;;2.40;2.05;;;17.60;99.90;;;;;;5011357;28;20026;-88
2021/07/10 03:16:50;;;;;;;3.83;1.55;;;17.60;99.90;;;;;;5012891;28;20087;-89
2021/07/10 03:19:15;;;;;;;3.90;1.95;;;17.70;99.90;;;;;;5012361;28;20125;-88
2021/07/10 03:21:42;;;;;;;2.75;1.63;;;17.70;99.90;;;;;;5012644;28;20026;-90
2021/07/10 03:24:08;;;;;;;4.38;1.80;;;17.70;99.90;;;;;;5011628;28;20030;-89
2021/07/10 03:26:34;;;;;;;1.92;1.58;;;17.80;99.90;;;;;;4993062;28;20069;-88
2021/07/10 03:28:59;;;;;;;2.45;1.67;;;17.90;99.90;;;;;;5005570;28;20026;-88
2021/07/10 03:31:25;;;;;;;1.55;1.42;;;17.80;99.90;;;;;;5012333;28;20022;-88
2021/07/10 03:33:51;;;;;;;2.00;1.70;;;17.70;99.90;;;;;;5012312;28;20061;-89
2021/07/10 03:36:17;;;;;;;2.90;1.80;;;17.70;99.90;;;;;;4990908;28;20061;-88
2021/07/10 03:38:44;;;;;;;2.65;1.60;;;17.70;99.90;;;;;;5006073;28;20018;-89
2021/07/10 03:41:17;;;;;;;1.60;1.50;;;17.80;99.90;;;;;;4999002;28;20033;-89
2021/07/10 03:43:43;;;;;;;2.55;1.80;;;17.80;99.90;;;;;;5010391;28;20029;-88
2021/07/10 03:46:10;;;;;;;2.17;1.42;;;17.80;99.90;;;;;;5002145;28;20100;-89
2021/07/10 03:48:37;;;;;;;2.63;1.75;;;17.80;99.90;;;;;;5008278;28;20029;-90
2021/07/10 03:51:04;;;;;;;2.22;1.58;;;17.90;99.90;;;;;;5011856;28;20157;-88
2021/07/10 03:53:30;;;;;;;2.75;1.60;;;17.90;99.90;;;;;;5012061;28;20014;-89
2021/07/10 03:55:56;;;;;;;2.08;1.50;;;17.80;99.90;;;;;;5004164;28;20160;-88
2021/07/10 03:58:22;;;;;;;3.05;1.67;;;17.80;99.90;;;;;;5004888;28;20030;-89
2021/07/10 04:00:47;;;;;;;3.97;1.63;;;17.80;99.90;;;;;;4997973;28;20037;-89
2021/07/10 04:03:13;;;;;;;1.95;1.63;;;17.80;99.90;;;;;;5011785;28;20024;-89
2021/07/10 04:05:39;;;;;;;3.15;1.80;;;17.90;99.90;;;;;;5011463;28;20073;-88
2021/07/10 04:08:05;;;;;;;2.33;1.50;;;17.90;99.90;;;;;;5011748;28;20026;-89
2021/07/10 04:10:31;;;;;;;2.13;1.52;;;17.90;99.90;;;;;;5011051;28;20533;-89
2021/07/10 04:12:57;;;;;;;1.98;1.70;;;17.90;99.90;;;;;;5011110;28;20498;-89
2021/07/10 04:15:22;;;;;;;3.10;1.55;;;17.90;99.90;;;;;;5011137;28;20097;-89
2021/07/10 04:17:48;;;;;;;2.78;1.60;;;17.80;99.90;;;;;;5009738;28;20118;-89
2021/07/10 04:20:17;;;;;;;3.92;1.60;;;17.80;99.90;;;;;;5011111;28;20022;-88
2021/07/10 04:22:44;;;;;;;2.97;1.60;;;17.70;99.90;;;;;;4995900;28;20028;-89
2021/07/10 04:25:15;;;;;;;2.58;1.52;;;17.80;99.90;;;;;;5011119;28;20037;-89
2021/07/10 04:27:43;;;;;;;2.25;1.55;;;17.80;99.90;;;;;;5010652;28;20014;-89
2021/07/10 04:30:11;;;;;;;2.95;1.50;;;17.80;99.90;;;;;;5010912;28;20104;-89
2021/07/10 04:32:37;;;;;;;2.88;1.67;;;17.80;99.90;;;;;;5010689;28;20399;-89
2021/07/10 04:35:06;;;;;;;3.47;1.60;;;17.80;99.90;;;;;;5008141;28;20080;-89
2021/07/10 04:37:32;;;;;;;3.55;1.50;;;17.80;99.90;;;;;;5000085;28;20033;-88
2021/07/10 04:39:58;;;;;;;2.45;1.33;;;17.80;99.90;;;;;;5009624;28;20490;-89
2021/07/10 04:42:24;;;;;;;4.88;1.60;;;17.80;99.90;;;;;;4993543;28;20481;-88
2021/07/10 04:44:51;;;;;;;3.80;1.60;;;17.80;99.90;;;;;;5010899;28;20052;-89
2021/07/10 04:47:17;;;;;;;2.08;1.50;;;17.80;99.90;;;;;;4990613;28;20034;-89
2021/07/10 04:49:43;;;;;;;1.92;1.40;;;17.80;99.90;;;;;;5001887;28;20026;-88
2021/07/10 04:52:09;;;;;;;2.00;1.60;;;17.80;99.90;;;;;;5011117;28;20022;-89
2021/07/10 04:54:34;;;;;;;2.72;1.42;;;17.80;99.90;;;;;;5010867;28;20018;-89
2021/07/10 04:57:00;;;;;;;3.25;1.67;;;17.80;99.90;;;;;;5010490;28;20178;-89
2021/07/10 04:59:27;;;;;;;3.72;1.75;;;17.80;99.90;;;;;;5010396;28;20045;-89
2021/07/10 05:01:52;;;;;;;4.03;1.40;;;17.90;99.90;;;;;;5010470;28;20029;-89
2021/07/10 05:04:18;;;;;;;2.63;1.50;;;17.80;99.90;;;;;;4992389;28;20084;-88
2021/07/10 05:06:44;;;;;;;4.32;1.60;;;17.80;99.90;;;;;;5010155;28;20105;-89
2021/07/10 05:09:10;;;;;;;2.85;1.88;;;17.90;99.90;;;;;;5010177;28;20028;-88
2021/07/10 05:11:35;;;;;;;2.50;1.73;;;17.90;99.90;;;;;;5010321;28;20064;-89
2021/07/10 05:14:01;;;;;;;2.72;1.83;;;17.90;99.90;;;;;;5010291;28;20026;-88
2021/07/10 05:16:27;;;;;;;3.38;1.60;;;17.90;99.90;;;;;;5010295;28;20025;-89
2021/07/10 05:18:53;;;;;;;5.70;1.98;;;17.90;99.90;;;;;;5010317;28;20387;-88
2021/07/10 05:21:21;;;;;;;2.75;1.60;;;17.80;99.90;;;;;;5009904;28;20478;-88
2021/07/10 05:23:46;;;;;;;2.50;1.55;;;17.80;99.90;;;;;;4998169;28;20045;-89
2021/07/10 05:26:12;;;;;;;2.83;1.70;;;17.80;99.90;;;;;;5002947;28;20868;-88
2021/07/10 05:28:38;;;;;;;3.65;2.00;;;17.80;99.90;;;;;;5008380;28;20025;-88
2021/07/10 05:31:04;;;;;;;2.58;1.80;;;17.90;99.90;;;;;;5005374;28;20114;-88
2021/07/10 05:33:30;;;;;;;3.25;1.60;;;17.90;99.90;;;;;;5006982;28;20439;-88
2021/07/10 05:35:56;;;;;;;5.38;1.77;;;17.90;99.90;;;;;;5005237;28;20051;-88
2021/07/10 05:38:22;;;;;;;5.25;1.90;;;18.00;99.90;;;;;;4988040;28;20037;-88
2021/07/10 05:40:48;;;;;;;2.22;1.70;;;18.10;99.90;;;;;;4997498;28;20542;-88
2021/07/10 05:43:15;;;;;;;3.53;1.88;;;18.00;99.90;;;;;;4994874;28;20026;-89
2021/07/10 05:45:41;;;;;;;2.30;1.70;;;18.00;99.90;;;;;;4998201;28;20088;-88
2021/07/10 05:48:07;;;;;;;2.85;1.80;;;18.00;99.90;;;;;;4994906;28;20022;-88
2021/07/10 05:50:34;;;;;;;4.45;2.03;;;18.00;99.90;;;;;;4998925;28;20014;-88
2021/07/10 05:53:00;;;;;;;3.75;2.00;;;18.10;99.90;;;;;;4972861;28;20498;-88
2021/07/10 05:55:25;;;;;;;3.08;2.10;;;18.10;99.90;;;;;;4997541;28;20027;-88
2021/07/10 05:57:51;;;;;;;2.55;1.85;;;18.10;99.90;;;;;;5000410;28;20118;-90
2021/07/10 06:00:17;;;;;;;2.33;1.80;;;18.00;99.90;;;;;;4994961;28;20523;-91
2021/07/10 06:02:43;;;;;;;3.72;2.10;;;18.00;99.90;;;;;;4989703;28;20044;-91
2021/07/10 06:05:10;;;;;;;3.40;2.05;;;18.00;99.90;;;;;;4995513;28;20387;-94
2021/07/10 06:07:38;;;;;;;2.75;1.92;;;18.10;99.90;;;;;;4993859;28;20084;-90
2021/07/10 06:10:13;;;;;;;4.13;2.10;;;18.20;99.90;;;;;;4997927;28;20435;-90
2021/07/10 06:12:42;;;;;;;3.70;1.75;;;18.20;99.90;;;;;;4993525;28;20394;-91
2021/07/10 06:15:10;;;;;;;2.70;2.10;;;18.20;99.90;;;;;;5000045;28;20483;-90
2021/07/10 06:17:36;;;;;;;5.20;1.98;;;18.30;99.90;;;;;;4996139;28;20443;-90
2021/07/10 06:20:05;;;;;;;2.42;1.63;;;18.40;99.90;;;;;;5006605;28;20087;-91
2021/07/10 06:22:31;;;;;;;2.45;2.00;;;18.50;99.90;;;;;;4996406;28;20084;-90
2021/07/10 06:24:57;;;;;;;2.75;1.70;;;18.60;99.90;;;;;;5006405;28;20034;-91
2021/07/10 06:27:22;;;;;;;2.53;1.77;;;18.70;99.90;;;;;;4994123;28;20027;-91
2021/07/10 06:29:48;;;;;;;3.47;2.00;;;18.70;99.90;;;;;;4999910;28;20033;-91
2021/07/10 06:32:14;;;;;;;2.67;1.80;;;18.70;99.90;;;;;;4991678;28;20011;-91
2021/07/10 06:34:40;;;;;;;2.75;2.20;;;18.80;99.90;;;;;;5011646;28;20225;-91
2021/07/10 06:37:05;;;;;;;1.95;1.60;;;18.70;99.90;;;;;;4997834;28;20037;-91
2021/07/10 06:39:32;;;;;;;4.07;1.90;;;18.80;99.90;;;;;;4998940;28;20066;-91
2021/07/10 06:42:03;;;;;;;2.42;1.63;;;18.80;99.90;;;;;;5011405;28;20030;-91
2021/07/10 06:44:29;;;;;;;1.75;1.63;;;18.90;99.90;;;;;;5007042;28;20494;-91
2021/07/10 06:46:54;;;;;;;3.15;1.80;;;18.80;99.90;;;;;;4993865;28;20113;-89
2021/07/10 06:49:22;;;;;;;3.83;1.70;;;18.80;99.90;;;;;;5013329;28;20054;-90
2021/07/10 06:51:49;;;;;;;2.80;1.63;;;18.80;99.90;;;;;;5000232;28;20050;-89
2021/07/10 06:54:15;;;;;;;4.50;2.10;;;18.80;99.90;;;;;;4998743;28;20490;-93
2021/07/10 06:56:43;;;;;;;2.17;1.63;;;18.70;99.90;;;;;;5017494;28;20030;-92
2021/07/10 06:59:11;;;;;;;2.25;1.50;;;18.80;99.90;;;;;;4997420;28;20077;-92
2021/07/10 07:01:37;;;;;;;2.47;1.55;;;18.80;99.90;;;;;;5000521;28;20010;-92
2021/07/10 07:04:03;;;;;;;3.40;1.70;;;18.80;99.90;;;;;;5013807;28;20022;-92
2021/07/10 07:06:37;;;;;;;2.20;1.73;;;18.70;99.90;;;;;;5005204;28;20034;-92
2021/07/10 07:09:03;;;;;;;1.95;1.48;;;18.70;99.90;;;;;;5020267;28;20034;-92
2021/07/10 07:11:58;;;;;;;2.42;1.63;;;18.80;99.90;;;;;;5019057;28;20034;-92
2021/07/10 07:14:24;;;;;;;1.88;1.30;;;18.80;99.90;;;;;;5039703;28;20030;-92
2021/07/10 07:16:55;;;;;;;2.33;1.45;;;18.90;99.90;;;;;;5026828;28;20019;-92
2021/07/10 07:19:30;;;;;;;3.33;1.88;;;19.00;99.90;;;;;;5008445;28;20030;-92
2021/07/10 07:21:56;;;;;;;2.03;1.55;;;19.00;99.90;;;;;;5025103;28;20304;-92
2021/07/10 07:24:31;;;;;;;2.40;1.60;;;19.10;99.90;;;;;;5010102;28;20515;-92
2021/07/10 07:27:06;;;;;;;3.13;1.52;;;19.20;99.90;;;;;;5006807;28;20027;-92
2021/07/10 07:29:36;;;;;;;1.60;1.50;;;19.30;99.90;;;;;;5017851;28;20081;-92
2021/07/10 07:32:10;;;;;;;3.95;1.60;;;19.40;99.90;;;;;;5015078;28;20491;-92
2021/07/10 07:34:47;;;;;;;2.85;1.60;;;19.50;99.90;;;;;;5014115;28;20026;-92
2021/07/10 07:37:22;;;;;;;3.00;1.90;;;19.70;99.90;;;;;;5003124;28;20030;-92
2021/07/10 07:39:51;;;;;;;2.45;1.50;;;19.80;99.90;;;;;;5037673;28;20066;-91
2021/07/10 07:42:26;;;;;;;1.58;1.48;;;19.90;99.90;;;;;;5016933;28;20030;-92
2021/07/10 07:44:52;;;;;;;2.25;1.45;;;19.90;99.90;;;;;;5036664;28;20042;-92
2021/07/10 07:47:22;;;;;;;2.67;1.45;;;20.00;99.90;;;;;;5004790;28;20391;-93
2021/07/10 07:49:52;;;;;;;2.75;1.50;;;20.00;99.90;;;;;;5034280;28;20038;-91
2021/07/10 07:52:18;;;;;;;2.72;1.70;;;20.00;99.90;;;;;;5035983;28;20021;-92
2021/07/10 07:54:46;;;;;;;1.83;1.30;;;20.10;99.90;;;;;;5016823;28;20548;-92
2021/07/10 07:57:12;;;;;;;4.43;1.70;;;20.20;99.90;;;;;;5020843;28;20506;-92
2021/07/10 07:59:47;;;;;;;3.28;1.50;;;20.40;99.90;;;;;;5035944;28;20056;-92
2021/07/10 08:02:16;;;;;;;2.25;1.55;;;20.40;99.90;;;;;;5019278;28;20021;-92
2021/07/10 08:04:51;;;;;;;3.38;1.42;;;20.40;99.90;;;;;;5001761;28;20125;-93
2021/07/10 08:07:17;;;;;;;3.15;1.50;;;20.50;99.90;;;;;;5022052;28;20019;-92
2021/07/10 08:09:46;;;;;;;2.63;1.38;;;20.40;99.90;;;;;;5002358;28;20038;-92
2021/07/10 08:12:32;;;;;;;2.20;1.50;;;20.30;99.90;;;;;;5012535;28;20049;-93
2021/07/10 08:15:02;;;;;;;2.55;1.80;;;20.30;99.90;;;;;;5011499;28;20057;-92
2021/07/10 08:17:28;;;;;;;2.97;1.70;;;20.30;99.90;;;;;;5014702;28;20026;-93
2021/07/10 08:19:58;;;;;;;2.80;2.20;;;20.40;99.90;;;;;;5035741;28;20025;-92
2021/07/10 08:22:24;;;;;;;3.50;2.65;;;20.50;99.90;;;;;;5033542;28;20026;-92
2021/07/10 08:24:55;;;;;;;3.45;2.63;;;20.40;99.90;;;;;;5017180;28;20186;-92
2021/07/10 08:27:25;;;;;;;4.43;2.55;;;20.10;99.90;;;;;;5026012;28;20006;-92
2021/07/10 08:29:51;;;;;;;3.20;2.25;;;20.10;99.90;;;;;;5018185;28;20037;-93
2021/07/10 08:32:19;;;;;;;3.45;2.20;;;20.10;99.90;;;;;;5022825;28;20035;-93
2021/07/10 08:35:05;;;;;;;6.22;2.30;;;20.20;99.90;;;;;;5015122;28;20029;-92
2021/07/10 08:37:31;;;;;;;1.95;1.42;;;20.30;99.90;;;;;;5018305;28;20046;-93
2021/07/10 08:39:57;;;;;;;2.03;1.30;;;20.10;99.90;;;;;;5015572;28;20031;-92
2021/07/10 08:42:25;;;;;;;2.55;1.40;;;20.10;99.90;;;;;;5013810;28;20037;-92
2021/07/10 08:44:52;;;;;;;3.70;1.27;;;19.90;99.90;;;;;;5006975;28;20052;-92
2021/07/10 08:47:18;;;;;;;2.00;1.20;;;19.80;99.90;;;;;;5031523;28;20054;-92
2021/07/10 08:49:44;;;;;;;2.42;1.45;;;20.00;99.90;;;;;;5019495;28;20010;-92
2021/07/10 08:52:20;;;;;;;2.40;1.50;;;20.00;99.90;;;;;;5014147;28;20022;-92
2021/07/10 08:54:50;;;;;;;2.08;1.17;;;19.90;99.90;;;;;;5033743;28;20099;-92
2021/07/10 08:57:18;;;;;;;1.70;1.05;;;20.10;99.90;;;;;;5029436;28;20103;-92
2021/07/10 08:59:59;;;;;;;2.10;1.27;;;20.40;99.90;;;;;;5032518;28;20123;-91
2021/07/10 09:02:36;;;;;;;1.45;1.02;;;20.40;99.90;;;;;;5018677;28;20519;-93
2021/07/10 09:05:11;;;;;;;0.95;0.70;;;20.50;99.90;;;;;;5018025;28;20038;-92
2021/07/10 09:08:16;;;;;;;1.75;1.13;;;20.70;99.90;;;;;;5003986;28;20088;-92
2021/07/10 09:11:15;;;;;;;2.70;0.95;;;20.60;99.90;;;;;;5014728;28;20045;-94
2021/07/10 09:13:47;;;;;;;1.42;1.00;;;20.40;99.90;;;;;;5005284;28;20030;-92
2021/07/10 09:22:03;;;;;;;2.00;1.20;;;20.90;99.90;;;;;;4928242;29;20464;-91
2021/07/10 09:24:40;;;;;;;2.63;1.52;;;21.20;99.90;;;;;;4920704;28;20031;-94
2021/07/10 09:27:13;;;;;;;2.72;1.40;;;21.30;99.90;;;;;;4960136;28;20027;-91
2021/07/10 09:29:44;;;;;;;5.05;1.30;;;21.30;99.90;;;;;;4971991;28;20023;-89
2021/07/10 09:32:43;;;;;;;;;;;;;;;;;;;;;
2021/07/10 09:35:21;;;;;;;2.75;1.08;;;20.70;99.90;;;;;;4962681;28;20023;-92
2021/07/10 09:38:00;;;;;;;2.10;1.05;;;20.60;99.90;;;;;;4960203;28;20059;-92
2021/07/10 09:40:36;;;;;;;2.28;1.13;;;20.50;99.90;;;;;;4962290;28;20114;-91
2021/07/10 10:00:39;;;;;;;4.50;2.65;;;20.50;99.90;;;;;;5217208;23;20051;-92
2021/07/10 10:03:13;;;;;;;4.25;2.70;;;20.40;99.90;;;;;;4952471;28;20078;-95
2021/07/10 10:06:31;;;;;;;;;;;20.60;99.90;;;;;;4986349;28;20109;-96
2021/07/10 10:09:17;;;;;;;5.22;2.85;;;20.70;99.90;;;;;;4984257;28;19925;-95
2021/07/10 10:48:45;;;;;;;4.22;2.95;;;21.10;99.90;;;;;;5813404;23;20047;-75
2021/07/10 10:51:31;;;;;;;5.80;3.20;;;21.00;99.90;;;;;;4962125;29;20023;-86
2021/07/10 10:54:15;;;;;;;4.68;3.13;;;21.00;99.90;;;;;;4967988;28;20077;-82
2021/07/10 10:56:40;;;;;;;6.53;4.28;;;21.20;99.90;;;;;;4966147;29;20035;-82
2021/07/10 10:59:28;;;;;;;4.68;3.13;;;21.20;99.90;;;;;;4959551;29;20026;-82
2021/07/10 11:01:54;;;;;;;4.50;3.15;;;21.10;99.90;;;;;;4961560;28;20110;-82
2021/07/10 11:04:45;;;;;;;5.05;3.13;;;20.90;99.90;;;;;;4964736;29;20069;-82
2021/07/10 11:07:26;;;;;;;5.03;3.50;;;20.90;99.90;;;;;;4966363;28;20492;-82
2021/07/10 11:10:17;;;;;;;3.05;2.50;;;20.90;99.90;;;;;;4965702;28;20019;-83
2021/07/10 11:12:46;;;;;;;6.38;3.50;;;21.10;99.90;;;;;;4941589;29;20062;-82
2021/07/10 11:15:32;;;;;;;5.47;3.30;;;21.00;99.90;;;;;;4953663;28;20042;-82
2021/07/10 11:18:04;;;;;;;4.07;2.45;;;21.10;99.90;;;;;;4952266;28;20054;-82
2021/07/10 11:20:44;;;;;;;3.45;2.47;;;21.30;99.90;;;;;;4953332;28;20027;-82
2021/07/10 11:23:32;;;;;;;4.70;2.83;;;21.60;99.90;;;;;;4940361;29;20453;-82
2021/07/10 11:26:10;;;;;;;6.90;3.75;;;21.50;99.90;;;;;;4947508;29;20338;-82
2021/07/10 11:28:39;;;;;;;5.68;3.53;;;21.60;99.90;;;;;;4953490;29;20062;-82
2021/07/10 11:31:10;;;;;;;5.47;3.40;;;21.90;99.90;;;;;;4953581;28;20505;-82
2021/07/10 11:33:59;;;;;;;5.50;3.33;;;22.20;99.90;;;;;;4953337;28;20027;-82
2021/07/10 11:36:36;;;;;;;5.50;3.05;;;22.10;99.90;;;;;;4953127;29;20436;-82
2021/07/10 11:39:26;;;;;;;3.88;3.00;;;21.90;99.90;;;;;;4953111;28;20078;-82
2021/07/10 11:41:57;;;;;;;4.85;2.90;;;21.50;99.90;;;;;;4951777;29;20392;-82
2021/07/10 11:44:29;;;;;;;3.50;2.80;;;21.60;99.90;;;;;;4952921;28;20704;-82
2021/07/10 11:46:55;;;;;;;4.95;2.63;;;21.50;99.90;;;;;;4953252;28;20030;-82
2021/07/10 11:49:36;;;;;;;3.65;2.90;;;21.60;99.90;;;;;;4952883;28;20054;-82
2021/07/10 11:52:18;;;;;;;5.05;2.92;;;21.60;99.90;;;;;;4952956;28;20031;-82
2021/07/10 11:54:50;;;;;;;8.57;3.60;;;21.40;99.90;;;;;;4953084;29;20054;-82
2021/07/10 11:57:17;;;;;;;7.18;3.65;;;21.10;99.90;;;;;;4952616;28;20086;-82
2021/07/10 11:59:43;;;;;;;6.03;3.53;;;21.10;99.90;;;;;;4952782;28;20295;-82
2021/07/10 12:02:22;;;;;;;7.35;3.85;;;21.30;99.90;;;;;;4953187;28;20162;-82
2021/07/10 12:05:09;;;;;;;6.03;3.80;;;21.60;99.90;;;;;;4952712;28;20488;-82
2021/07/10 12:07:40;;;;;;;6.07;3.30;;;21.20;99.90;;;;;;4951587;29;20023;-82
2021/07/10 12:10:11;;;;;;;5.78;3.85;;;21.70;99.90;;;;;;4953132;28;20098;-82
2021/07/10 12:13:03;;;;;;;8.68;3.75;;;21.50;99.90;;;;;;4952836;28;20056;-82
2021/07/10 12:15:31;;;;;;;6.63;3.40;;;21.50;99.90;;;;;;4950749;28;20551;-82
2021/07/10 12:18:00;;;;;;;7.82;4.00;;;21.30;99.90;;;;;;4952432;28;20027;-82
2021/07/10 12:20:34;;;;;;;6.93;3.65;;;21.30;99.90;;;;;;4952527;28;20141;-82
2021/07/10 12:23:07;;;;;;;5.53;3.22;;;21.30;99.90;;;;;;4940312;29;20118;-82
2021/07/10 12:25:48;;;;;;;5.13;2.97;;;21.70;99.90;;;;;;4939441;29;20030;-82
2021/07/10 12:28:14;;;;;;;4.53;3.25;;;21.80;99.90;;;;;;4952599;28;20098;-82
2021/07/10 12:30:49;;;;;;;5.60;4.15;;;21.30;99.90;;;;;;4940158;29;20041;-71
2021/07/10 12:33:34;;;;;;;6.80;3.95;;;21.30;99.90;;;;;;4952286;28;20527;-71
2021/07/10 12:36:06;;;;;;;9.02;5.10;;;20.80;99.90;;;;;;4941539;29;20031;-71
2021/07/10 12:38:32;;;;;;;6.65;4.13;;;20.80;99.90;;;;;;4952246;28;20644;-71
2021/07/10 12:41:21;;;;;;;5.78;3.20;;;20.80;99.90;;;;;;4952359;28;20029;-71
2021/07/10 12:43:47;;;;;;;6.55;3.53;;;21.00;99.90;;;;;;4951961;28;20031;-71
2021/07/10 12:46:13;;;;;;;9.38;4.10;;;21.00;99.90;;;;;;4952362;28;20039;-71
2021/07/10 12:48:38;;;;;;;8.07;4.20;;;20.80;99.90;;;;;;4951889;28;20039;-71
2021/07/10 12:51:04;;;;;;;7.90;4.65;;;20.70;99.90;;;;;;4951891;29;20062;-71
2021/07/10 12:53:36;;;;;;;7.43;4.25;;;20.40;99.90;;;;;;4952056;28;20117;-71
2021/07/10 12:56:12;;;;;;;9.32;4.75;;;19.90;99.90;;;;;;4952015;28;20592;-71
2021/07/10 12:58:41;;;;;;;9.50;4.80;;;19.50;99.90;;;;;;4952303;28;20480;-71
2021/07/10 13:01:07;;;;;;;8.98;4.25;;;19.20;99.90;;;;;;4952185;28;20034;-71
2021/07/10 13:03:32;;;;;;;13.02;5.47;;;19.00;99.90;;;;;;4951893;28;20147;-71
2021/07/10 13:06:02;;;;;;;15.07;6.63;;;18.80;99.90;;;;;;4951585;28;20137;-71
2021/07/10 13:08:29;;;;;;;13.32;6.18;;;18.70;99.90;;;;;;4952143;28;20035;-71
2021/07/10 13:11:00;;;;;;;11.25;5.38;;;18.70;99.90;;;;;;4950983;28;20322;-71
2021/07/10 13:13:50;;;;;;;8.68;4.68;;;18.50;99.90;;;;;;4951789;28;20135;-71
2021/07/10 13:16:17;;;;;;;9.52;5.10;;;18.50;99.90;;;;;;4951516;28;20046;-70
2021/07/10 13:18:50;;;;;;;12.02;7.47;;;18.80;99.90;;;;;;4951952;28;20016;-71
2021/07/10 13:21:28;;;;;;;9.98;5.85;;;19.20;99.90;;;;;;4951544;28;20038;-72
2021/07/10 13:23:58;;;;;;;13.10;5.78;;;19.40;99.90;;;;;;4951664;28;20049;-71
2021/07/10 13:26:27;;;;;;;17.92;7.85;;;19.30;99.90;;;;;;4951554;28;20062;-73
2021/07/10 13:29:05;;;;;;;11.18;6.03;;;19.10;99.90;;;;;;4951651;29;20051;-71
2021/07/10 13:31:36;;;;;;;8.00;4.00;;;18.90;99.90;;;;;;4951661;28;20094;-72
2021/07/10 13:34:08;;;;;;;8.55;3.20;;;18.60;99.90;;;;;;4951708;28;20516;-71
2021/07/10 13:36:42;;;;;;;7.68;3.38;;;18.50;99.90;;;;;;4951559;28;20023;-72
2021/07/10 13:39:11;;;;;;;8.23;4.87;;;18.40;99.90;;;;;;4952238;28;20031;-72
2021/07/10 13:41:40;;;;;;;7.32;5.00;;;18.40;99.90;;;;;;4951551;28;20026;-72
2021/07/10 13:44:08;;;;;;;6.15;3.65;;;18.40;99.90;;;;;;4950723;28;20279;-72
2021/07/10 13:46:37;;;;;;;6.78;2.95;;;18.50;99.90;;;;;;4950939;29;20019;-72
2021/07/10 13:49:32;;;;;;;5.13;4.25;;;18.80;99.90;;;;;;4950539;29;20078;-72
2021/07/10 13:52:00;;;;;;;;;;;19.40;99.90;;;;;;4951139;29;20019;-73
2021/07/10 13:54:26;;;;;;;10.32;4.13;;;20.20;99.90;;;;;;4950973;29;19910;-73
2021/07/10 13:57:12;;;;;;;6.50;3.70;;;20.70;99.90;;;;;;4951005;29;20023;-73
2021/07/10 13:59:38;;;;;;;8.02;4.10;;;21.00;99.90;;;;;;4950372;29;20031;-73
2021/07/10 14:02:05;;;;;;;6.50;3.50;;;21.10;99.90;;;;;;4950814;29;20019;-72